This is the latest recevied weather packets stored in our database for station/object KC4GS-13. If no packets are shown the sender has not sent any weather packets the latest 1 day(s).
| Time | Temp. | Humidity | Pressure | Rain* | Wind** | Luminosity | Snow |
|---|---|---|---|---|---|---|---|
| 1778095665 | 32.22° C | 41% | 1015 hPa | 0 mm | - | 691 W/m² | - |
| 1778093846 | 31.11° C | 43% | 1015.2 hPa | 0 mm | - | 709 W/m² | - |
| 1778093542 | 31.11° C | 44% | 1015.1 hPa | 0 mm | - | 698 W/m² | - |
| 1778093240 | 31.11° C | 45% | 1015.1 hPa | 0 mm | - | 639 W/m² | - |
| 1778092937 | 31.11° C | 47% | 1015.1 hPa | 0 mm | - | 729 W/m² | - |
| 1778092634 | 30.56° C | 48% | 1015.3 hPa | 0 mm | - | 776 W/m² | - |
| 1778092027 | 30.56° C | 49% | 1015.1 hPa | 0 mm | - | 703 W/m² | - |
| 1778091724 | 30° C | 49% | 1015.1 hPa | 0 mm | - | 706 W/m² | - |
| 1778091119 | 30° C | 52% | 1015.1 hPa | 0 mm | - | 686 W/m² | - |
| 1778089598 | 28.33° C | 56% | 1015.7 hPa | 0 mm | - | 792 W/m² | - |
| 1778089294 | 27.22° C | 59% | 1015.9 hPa | 0 mm | - | 792 W/m² | - |
| 1778088992 | 26.67° C | 58% | 1016 hPa | 0 mm | - | 235 W/m² | - |
| 1778088386 | 27.78° C | 56% | 1016.2 hPa | 0 mm | - | 240 W/m² | - |
| 1778088082 | 28.33° C | 54% | 1016.2 hPa | 0 mm | - | 652 W/m² | - |
| 1778086260 | 26.11° C | 63% | 1017 hPa | 0 mm | - | 478 W/m² | - |
| 1778085045 | 25° C | 67% | 1017.3 hPa | 0 mm | - | 308 W/m² | - |
| 1778083520 | 25° C | 67% | 1017.6 hPa | 0 mm | - | 331 W/m² | - |
| 1778082915 | 25° C | 66% | 1017.6 hPa | 0 mm | - | 368 W/m² | - |
| 1778080898 | 23.89° C | 73% | 1017.8 hPa | 0 mm | - | 114 W/m² | - |
| 1778080293 | 23.89° C | 73% | 1017.5 hPa | 0 mm | - | 246 W/m² | - |
| 1778079990 | 23.89° C | 73% | 1017.3 hPa | 0 mm | - | 252 W/m² | - |
| 1778079384 | 23.33° C | 75% | 1017 hPa | 0 mm | - | 252 W/m² | - |
| 1778078778 | 22.78° C | 75% | 1016.8 hPa | 0 mm | - | 204 W/m² | - |
| 1778076662 | 21.67° C | 79% | 1017 hPa | 0 mm | - | 240 W/m² | - |
| 1778076056 | 21.11° C | 79% | 1016.8 hPa | 0 mm | - | 148 W/m² | - |
* Rain latest hour (hover to see other rain measurements)
** Current wind speed in m/s (hover to see current wind gust speed)